Time;durP1;ratioP1;P1;durP2;ratioP2;P2;SDS_P1;SDS_P2;PMS_P1;PMS_P2;Temp;Humidity;BMP_temperature;BMP_pressure;BME280_temperature;BME280_humidity;BME280_pressure;Samples;Min_cycle;Max_cycle;Signal;HPM_P1;HPM_P2
2022/05/30 00:00:54;;;;;;;7.60;3.80;;;;;;;11.22;62.56;96474.99;1652942;84;27554;-77
2022/05/30 00:03:20;;;;;;;6.45;3.62;;;;;;;11.18;62.62;96473.29;1689992;84;25648;-75
2022/05/30 00:05:49;;;;;;;8.38;3.75;;;;;;;11.17;62.65;96463.54;1690230;84;25787;-77
2022/05/30 00:08:18;;;;;;;8.18;3.45;;;;;;;11.18;62.71;96460.61;1690273;84;25795;-78
2022/05/30 00:10:45;;;;;;;8.38;4.05;;;;;;;11.18;62.69;96457.08;1690399;84;25791;-77
2022/05/30 00:13:12;;;;;;;6.33;3.85;;;;;;;11.19;62.66;96464.95;1690192;84;27373;-76
2022/05/30 00:15:39;;;;;;;6.25;3.70;;;;;;;11.21;62.64;96477.41;1690383;84;25450;-76
2022/05/30 00:18:09;;;;;;;5.42;3.62;;;;;;;11.14;62.77;96475.64;1690327;84;25815;-76
2022/05/30 00:20:34;;;;;;;6.30;3.08;;;;;;;11.10;62.84;96481.23;1690070;84;25714;-76
2022/05/30 00:23:01;;;;;;;5.95;3.60;;;;;;;11.10;62.90;96483.94;1708172;80;25965;-76
2022/05/30 00:25:28;;;;;;;5.05;3.27;;;;;;;11.13;62.89;96480.73;1775081;80;27350;-76
2022/05/30 00:27:54;;;;;;;5.37;3.27;;;;;;;11.14;62.83;96482.39;1775099;80;25726;-76
2022/05/30 00:30:21;;;;;;;5.58;3.50;;;;;;;11.14;62.80;96475.64;1775011;80;26560;-76
2022/05/30 00:32:47;;;;;;;6.30;3.37;;;;;;;11.14;62.88;96476.16;1775136;80;25725;-76
2022/05/30 00:35:14;;;;;;;5.92;3.40;;;;;;;11.09;62.90;96485.00;1775041;80;25667;-76
2022/05/30 00:37:41;;;;;;;8.15;3.77;;;;;;;11.06;62.90;96476.01;1774713;79;27484;-75
2022/05/30 00:40:09;;;;;;;5.40;3.75;;;;;;;11.07;62.89;96476.30;1774888;80;25842;-76
2022/05/30 00:42:36;;;;;;;9.23;3.77;;;;;;;11.07;62.86;96469.55;1775018;80;25719;-75
2022/05/30 00:45:03;;;;;;;4.62;3.55;;;;;;;11.04;62.90;96460.56;1774912;80;25734;-77
2022/05/30 00:47:29;;;;;;;5.30;3.60;;;;;;;11.04;62.99;96469.19;1775177;80;25921;-76
2022/05/30 00:49:56;;;;;;;8.18;3.65;;;;;;;11.03;63.01;96462.97;1775102;80;27345;-76
2022/05/30 00:52:42;;;;;;;7.05;3.80;;;;;;;11.04;63.04;96461.91;1774954;80;25217;-76
2022/05/30 00:55:17;;;;;;;4.70;3.83;;;;;;;11.02;63.04;96457.27;1772113;80;25686;-76
2022/05/30 00:57:46;;;;;;;7.65;3.45;;;;;;;10.92;63.12;96454.36;1745718;82;25710;-76
2022/05/30 01:00:20;;;;;;;6.42;3.98;;;;;;;10.84;63.31;96457.42;1745578;82;25533;-76
2022/05/30 01:08:03;;;;;;;16.73;3.65;;;;;;;10.83;63.47;96453.91;1691545;84;26327;-76
2022/05/30 01:10:29;;;;;;;9.05;3.62;;;;;;;10.87;63.48;96452.88;1691692;84;26690;-76
2022/05/30 01:12:58;;;;;;;9.98;4.12;;;;;;;10.89;63.57;96456.17;1691642;84;25799;-77
2022/05/30 01:15:29;;;;;;;5.83;4.08;;;;;;;10.86;63.59;96455.31;1691658;84;27629;-76
2022/05/30 01:18:13;;;;;;;9.43;4.53;;;;;;;10.77;63.73;96449.95;1692087;84;25930;-77
2022/05/30 01:21:29;;;;;;;7.58;4.12;;;;;;;10.68;64.00;96448.16;1644991;87;25831;-76
2022/05/30 01:24:33;;;;;;;8.05;4.30;;;;;;;10.58;64.17;96443.05;1644775;87;25904;-76
2022/05/30 01:27:46;;;;;;;6.12;4.42;;;;;;;10.49;64.29;96443.12;1645177;87;25798;-77
2022/05/30 01:30:16;;;;;;;4.62;3.77;;;;;;;10.51;64.50;96443.67;1643709;87;28011;-77
2022/05/30 01:32:42;;;;;;;6.47;4.33;;;;;;;10.44;64.63;96443.80;1644890;87;25941;-76
2022/05/30 01:35:11;;;;;;;7.95;4.15;;;;;;;10.42;64.70;96434.59;1645038;87;25821;-76
2022/05/30 01:37:38;;;;;;;8.65;4.35;;;;;;;10.44;64.70;96432.48;1645739;86;25783;-74
2022/05/30 01:40:06;;;;;;;7.20;4.30;;;;;;;10.48;64.71;96426.63;1646316;87;25478;-76
2022/05/30 01:42:32;;;;;;;5.20;4.10;;;;;;;10.51;64.79;96420.74;1646437;87;27280;-76
2022/05/30 01:44:59;;;;;;;5.92;3.80;;;;;;;10.56;64.73;96419.52;1646383;87;25719;-75
2022/05/30 01:47:26;;;;;;;7.33;4.20;;;;;;;10.59;64.65;96429.86;1646481;87;25823;-75
2022/05/30 01:49:53;;;;;;;8.85;4.12;;;;;;;10.61;64.68;96426.40;1646481;87;26620;-76
2022/05/30 01:52:19;;;;;;;7.60;4.30;;;;;;;10.63;64.67;96421.56;1646438;87;25839;-78
2022/05/30 01:54:46;;;;;;;7.10;3.85;;;;;;;10.65;64.65;96427.55;1647259;87;27469;-76
2022/05/30 01:57:12;;;;;;;17.50;5.10;;;;;;;10.66;64.62;96423.80;1656941;84;25826;-75
2022/05/30 01:59:39;;;;;;;7.15;4.75;;;;;;;10.69;64.60;96428.20;1716188;83;25552;-76
2022/05/30 02:02:05;;;;;;;6.10;4.33;;;;;;;10.70;64.58;96426.33;1716312;83;26357;-76
2022/05/30 02:04:33;;;;;;;8.30;4.40;;;;;;;10.73;64.54;96428.56;1716071;83;25901;-79
2022/05/30 02:06:59;;;;;;;8.48;4.70;;;;;;;10.73;64.51;96433.97;1716145;83;27397;-76
2022/05/30 02:09:26;;;;;;;6.25;4.30;;;;;;;10.66;64.49;96431.89;1773876;80;25671;-76
2022/05/30 02:11:52;;;;;;;6.37;4.00;;;;;;;10.63;64.64;96434.53;1782270;80;26048;-77
2022/05/30 02:14:19;;;;;;;6.08;4.55;;;;;;;10.66;64.71;96427.84;1782046;80;25763;-76
2022/05/30 02:17:01;;;;;;;9.13;4.47;;;;;;;10.69;64.71;96434.13;1781912;80;25750;-77
2022/05/30 02:19:43;;;;;;;5.05;4.37;;;;;;;10.72;64.75;96432.32;1782408;80;27382;-77
2022/05/30 02:22:15;;;;;;;7.20;4.47;;;;;;;10.71;64.90;96434.72;1765504;81;26579;-77
2022/05/30 02:24:42;;;;;;;8.33;4.70;;;;;;;10.69;65.06;96426.03;1674573;85;26376;-75
2022/05/30 02:27:11;;;;;;;7.10;4.40;;;;;;;10.65;65.03;96427.55;1674263;85;26401;-77
2022/05/30 02:29:38;;;;;;;6.28;4.40;;;;;;;10.66;65.09;96430.02;1674352;85;25916;-76
2022/05/30 02:32:06;;;;;;;6.90;4.50;;;;;;;10.65;65.15;96424.85;1674385;85;27433;-78
2022/05/30 02:37:18;;;;;;;9.08;5.25;;;;;;;10.67;65.13;96427.61;1672412;84;25822;-76
2022/05/30 02:39:44;;;;;;;10.75;5.90;;;;;;;10.70;65.10;96429.03;1671527;85;26353;-78
2022/05/30 02:42:12;;;;;;;7.00;5.53;;;;;;;10.69;65.05;96426.03;1671517;85;25872;-76
2022/05/30 02:44:39;;;;;;;9.20;6.10;;;;;;;10.66;65.13;96425.14;1671301;85;27398;-76
2022/05/30 02:47:06;;;;;;;8.80;6.83;;;;;;;10.65;65.21;96428.38;1671299;85;25892;-78
2022/05/30 02:49:32;;;;;;;12.85;7.42;;;;;;;10.64;65.27;96428.61;1671364;85;25779;-76
2022/05/30 02:51:59;;;;;;;9.18;5.95;;;;;;;10.63;65.32;96422.91;1671345;85;25805;-76
2022/05/30 02:54:27;;;;;;;9.60;6.35;;;;;;;10.63;65.37;96431.01;1671398;85;25756;-75
2022/05/30 02:56:57;;;;;;;10.93;6.72;;;;;;;10.64;65.41;96434.00;1671403;85;28030;-75
2022/05/30 02:59:26;;;;;;;9.53;6.37;;;;;;;10.64;65.45;96432.66;1678805;85;25795;-77
2022/05/30 03:01:53;;;;;;;10.30;6.65;;;;;;;10.66;65.49;96442.16;1686336;85;25910;-76
2022/05/30 03:04:20;;;;;;;8.93;6.92;;;;;;;10.64;65.53;96439.40;1686358;85;25851;-76
2022/05/30 03:06:48;;;;;;;9.15;6.47;;;;;;;10.63;65.58;96443.16;1686248;85;25786;-76
2022/05/30 03:09:16;;;;;;;7.62;6.78;;;;;;;10.64;65.62;96442.92;1686446;85;27393;-77
2022/05/30 03:11:42;;;;;;;9.03;6.62;;;;;;;10.64;65.62;96442.92;1686275;85;25779;-77
2022/05/30 03:14:09;;;;;;;10.18;6.92;;;;;;;10.63;65.54;96436.41;1686481;85;25779;-76
2022/05/30 03:16:36;;;;;;;8.63;6.75;;;;;;;10.63;65.60;96440.45;1686035;85;25840;-76
2022/05/30 03:19:02;;;;;;;8.53;7.62;;;;;;;10.58;65.70;96443.05;1686472;85;25802;-76
2022/05/30 03:21:29;;;;;;;9.75;7.00;;;;;;;10.50;65.73;96448.81;1686372;85;27453;-75
2022/05/30 03:23:56;;;;;;;10.43;7.87;;;;;;;10.49;65.87;96445.81;1686359;85;25870;-76
2022/05/30 03:26:23;;;;;;;10.93;7.22;;;;;;;10.48;65.90;96450.39;1686433;85;25806;-75
2022/05/30 03:28:51;;;;;;;10.60;7.28;;;;;;;10.48;65.89;96459.01;1740222;80;25472;-76
2022/05/30 03:31:17;;;;;;;9.90;7.12;;;;;;;10.44;66.06;96466.21;1775924;80;25732;-76
2022/05/30 03:33:44;;;;;;;11.48;7.42;;;;;;;10.45;66.14;96468.38;1775790;80;27456;-76
2022/05/30 03:36:27;;;;;;;9.33;6.95;;;;;;;10.48;66.24;96468.45;1775840;80;25717;-75
2022/05/30 03:38:54;;;;;;;11.63;7.90;;;;;;;10.48;66.33;96478.72;1775493;80;25272;-76
2022/05/30 03:41:21;;;;;;;12.85;8.20;;;;;;;10.41;66.38;96477.46;1775942;80;25769;-75
2022/05/30 03:43:48;;;;;;;11.05;7.90;;;;;;;10.40;66.46;96474.47;1776051;80;25691;-75
2022/05/30 03:46:14;;;;;;;14.47;8.25;;;;;;;10.42;66.45;96483.16;1775868;80;28227;-76
2022/05/30 03:48:41;;;;;;;12.70;7.47;;;;;;;10.44;66.56;96482.40;1775778;80;25656;-76
2022/05/30 03:51:12;;;;;;;11.48;8.45;;;;;;;10.44;66.53;96481.05;1775889;80;25651;-76
2022/05/30 03:53:38;;;;;;;11.45;8.80;;;;;;;10.44;66.65;96486.45;1775917;80;26305;-76
2022/05/30 03:56:05;;;;;;;11.95;8.98;;;;;;;10.38;66.85;96487.91;1775938;80;26272;-75
2022/05/30 03:58:32;;;;;;;8.90;8.00;;;;;;;10.38;66.90;96486.04;1775843;80;27197;-75
2022/05/30 04:00:58;;;;;;;13.10;9.18;;;;;;;10.39;66.92;96482.27;1775960;80;25865;-76
2022/05/30 04:03:25;;;;;;;11.97;9.15;;;;;;;10.37;67.17;96483.05;1775643;80;25731;-75
2022/05/30 04:05:55;;;;;;;10.50;9.05;;;;;;;10.31;67.39;96482.61;1775566;80;25793;-76
2022/05/30 04:08:21;;;;;;;13.48;9.58;;;;;;;10.23;67.46;96484.83;1776007;80;25458;-76
2022/05/30 04:10:48;;;;;;;10.50;8.65;;;;;;;10.18;67.62;96486.86;1775939;80;28152;-76
2022/05/30 04:13:14;;;;;;;13.28;9.10;;;;;;;10.14;67.91;96487.54;1775822;80;25738;-76
2022/05/30 04:15:41;;;;;;;11.25;9.15;;;;;;;10.10;67.94;96481.78;1775513;80;25738;-76
2022/05/30 04:18:08;;;;;;;13.65;9.38;;;;;;;10.10;67.94;96480.43;1775989;80;25743;-75
2022/05/30 04:20:35;;;;;;;10.93;9.25;;;;;;;10.16;68.04;96477.32;1775793;80;26734;-75
2022/05/30 04:23:02;;;;;;;11.65;8.53;;;;;;;10.13;68.06;96484.02;1775609;80;27384;-75
2022/05/30 04:25:28;;;;;;;10.72;9.15;;;;;;;10.14;68.18;96489.71;1775841;80;25715;-75
2022/05/30 04:27:55;;;;;;;11.25;8.93;;;;;;;10.12;68.30;96487.77;1775976;80;25216;-77
2022/05/30 04:30:22;;;;;;;13.38;9.83;;;;;;;10.06;68.45;96484.63;1776044;80;25731;-75
2022/05/30 04:32:49;;;;;;;12.07;9.35;;;;;;;10.01;68.51;96487.21;1775658;80;25737;-75
2022/05/30 04:35:17;;;;;;;13.32;10.13;;;;;;;9.99;68.63;96496.05;1776270;80;27365;-77
2022/05/30 04:37:46;;;;;;;12.73;9.83;;;;;;;10.05;68.67;96497.81;1775143;79;25618;-76
2022/05/30 04:40:13;;;;;;;9.70;8.78;;;;;;;10.06;68.80;96490.02;1775103;80;25692;-75
2022/05/30 04:42:40;;;;;;;9.95;8.95;;;;;;;10.10;68.75;96485.83;1775035;80;26404;-75
2022/05/30 04:45:07;;;;;;;10.20;9.10;;;;;;;10.12;68.64;96481.02;1775056;80;25699;-76
2022/05/30 04:47:36;;;;;;;12.58;10.65;;;;;;;10.17;68.63;96484.36;1775124;80;27435;-77
2022/05/30 04:50:05;;;;;;;11.43;9.63;;;;;;;10.22;68.61;96487.23;1775028;80;25715;-75
2022/05/30 04:52:32;;;;;;;12.20;10.75;;;;;;;10.29;68.55;96491.45;1745614;80;26522;-74
2022/05/30 04:54:58;;;;;;;15.00;10.55;;;;;;;10.38;68.62;96480.64;1745728;80;25685;-77
2022/05/30 04:57:25;;;;;;;12.50;9.45;;;;;;;10.44;68.51;96481.05;1745762;82;25761;-77
2022/05/30 04:59:52;;;;;;;11.68;9.33;;;;;;;10.50;68.44;96483.88;1745637;80;28195;-76
2022/05/30 05:02:23;;;;;;;11.95;9.10;;;;;;;10.54;68.44;96489.09;1745275;80;25723;-77
2022/05/30 05:04:48;;;;;;;11.93;8.70;;;;;;;10.61;68.35;96489.81;1745455;81;25725;-75
2022/05/30 05:07:15;;;;;;;9.73;8.65;;;;;;;10.66;68.35;96487.22;1745709;80;25749;-76
2022/05/30 05:09:47;;;;;;;11.25;9.68;;;;;;;10.72;68.29;96488.47;1745814;80;25672;-75
2022/05/30 05:12:14;;;;;;;12.73;9.55;;;;;;;10.71;68.14;96486.00;1662474;85;27516;-75
2022/05/30 05:14:41;;;;;;;13.22;9.08;;;;;;;10.72;68.22;96480.90;1685511;83;25867;-77
2022/05/30 05:17:09;;;;;;;12.73;8.68;;;;;;;10.72;68.22;96488.47;1685510;83;25909;-77
2022/05/30 05:19:39;;;;;;;10.78;9.25;;;;;;;10.75;68.21;96492.55;1685668;83;25788;-76
2022/05/30 05:22:06;;;;;;;12.58;10.30;;;;;;;10.72;68.07;96491.17;1685801;83;25744;-76
2022/05/30 05:24:35;;;;;;;12.47;9.78;;;;;;;10.72;68.08;96509.24;1685747;84;28152;-77
2022/05/30 05:27:02;;;;;;;10.88;9.60;;;;;;;10.75;68.04;96504.17;1685517;83;26028;-77
2022/05/30 05:29:29;;;;;;;14.80;9.95;;;;;;;10.78;68.00;96502.89;1685335;84;25819;-76
2022/05/30 05:31:57;;;;;;;10.63;9.18;;;;;;;10.78;68.00;96501.55;1685882;83;25756;-77
2022/05/30 05:34:24;;;;;;;12.85;10.00;;;;;;;10.74;68.07;96505.79;1685680;83;25658;-77
2022/05/30 05:36:50;;;;;;;13.83;10.08;;;;;;;10.74;68.06;96504.44;1685613;84;27373;-75
2022/05/30 05:39:18;;;;;;;11.83;9.58;;;;;;;10.74;68.03;96502.56;1697837;84;25835;-75
2022/05/30 05:41:46;;;;;;;11.50;9.50;;;;;;;10.72;68.09;96501.14;1701365;84;25785;-77
2022/05/30 05:44:15;;;;;;;14.15;10.23;;;;;;;10.72;68.16;96508.72;1721307;81;25772;-77
2022/05/30 05:46:42;;;;;;;14.10;10.48;;;;;;;10.79;68.13;96518.03;1726623;83;25825;-75
2022/05/30 05:49:09;;;;;;;12.03;10.53;;;;;;;10.85;68.14;96529.27;1734608;81;27412;-75
2022/05/30 05:51:38;;;;;;;15.83;10.35;;;;;;;10.93;68.05;96520.80;1745903;82;25717;-76
2022/05/30 05:54:05;;;;;;;22.02;10.82;;;;;;;10.97;67.98;96513.89;1745920;81;25884;-76
2022/05/30 05:56:32;;;;;;;11.75;10.55;;;;;;;10.99;67.87;96511.75;1745815;82;25838;-77
2022/05/30 05:58:59;;;;;;;14.35;9.35;;;;;;;11.05;67.86;96522.97;1745985;82;25520;-76
2022/05/30 06:01:31;;;;;;;13.25;9.20;;;;;;;11.05;67.74;96525.67;1745846;82;27447;-75
2022/05/30 06:04:02;;;;;;;11.25;8.38;;;;;;;11.04;67.68;96525.91;1724000;83;25807;-76
2022/05/30 06:06:29;;;;;;;11.97;8.00;;;;;;;11.00;67.66;96535.00;1724276;83;25760;-75
2022/05/30 06:09:00;;;;;;;13.72;8.18;;;;;;;11.02;67.65;96520.73;1756336;79;25776;-75
2022/05/30 06:11:28;;;;;;;10.38;7.22;;;;;;;11.07;67.57;96542.47;1798100;79;25874;-75
2022/05/30 06:13:55;;;;;;;8.15;6.00;;;;;;;11.08;67.43;96549.52;1798151;79;27341;-75
2022/05/30 06:16:32;;;;;;;3.95;3.47;;;;;;;11.08;67.25;96551.39;1798184;79;25826;-75
2022/05/30 06:19:01;;;;;;;4.50;3.17;;;;;;;11.08;66.83;96556.80;1798145;79;25786;-76
2022/05/30 06:21:32;;;;;;;4.00;3.02;;;;;;;11.03;66.50;96538.59;1798214;79;25860;-76
2022/05/30 06:23:59;;;;;;;3.70;2.65;;;;;;;11.05;66.45;96532.42;1741345;82;25692;-76
2022/05/30 06:26:26;;;;;;;2.65;2.37;;;;;;;11.12;66.33;96537.69;1745862;82;28244;-76
2022/05/30 06:28:57;;;;;;;3.50;2.05;;;;;;;11.14;66.08;96545.86;1745879;81;25758;-77
2022/05/30 06:31:28;;;;;;;3.10;2.20;;;;;;;11.15;65.88;96559.66;1745830;82;25836;-76
2022/05/30 06:33:56;;;;;;;1.67;1.40;;;;;;;11.16;65.71;96553.20;1745787;82;25899;-75
2022/05/30 06:36:25;;;;;;;1.62;1.45;;;;;;;11.18;65.41;96544.87;1745947;82;25965;-77
2022/05/30 06:38:52;;;;;;;2.60;1.37;;;;;;;11.13;65.08;96550.97;1745489;82;27376;-76
2022/05/30 06:41:25;;;;;;;1.67;1.32;;;;;;;11.15;65.01;96550.20;1745943;82;25730;-74
2022/05/30 06:43:57;;;;;;;2.60;1.40;;;;;;;11.18;64.96;96555.67;1745860;82;25793;-75
2022/05/30 06:46:23;;;;;;;2.10;1.30;;;;;;;11.21;64.78;96550.33;1651941;86;25792;-75
2022/05/30 06:51:19;;;;;;;1.40;1.30;;;;;;;11.32;64.64;96550.86;1574376;91;28283;-76
2022/05/30 06:53:45;;;;;;;1.62;1.52;;;;;;;11.40;64.61;96549.13;1574106;91;25871;-76
2022/05/30 06:56:15;;;;;;;1.80;1.57;;;;;;;11.46;64.49;96559.00;1574361;91;25787;-76
2022/05/30 06:58:44;;;;;;;1.47;1.37;;;;;;;11.54;64.48;96562.69;1574271;91;26495;-76
2022/05/30 07:01:11;;;;;;;2.05;1.27;;;;;;;11.65;64.31;96562.36;1577989;90;25672;-75
2022/05/30 07:03:39;;;;;;;1.40;1.30;;;;;;;11.73;64.00;96561.98;1579486;90;27397;-77
2022/05/30 07:06:10;;;;;;;2.05;1.80;;;;;;;11.82;63.96;96573.59;1579299;90;25771;-75
2022/05/30 07:08:37;;;;;;;1.67;1.30;;;;;;;11.89;63.63;96571.56;1567929;90;25794;-76
2022/05/30 07:11:06;;;;;;;3.20;1.60;;;;;;;11.99;63.51;96575.53;1541996;93;26553;-77
2022/05/30 07:13:33;;;;;;;3.65;1.95;;;;;;;12.12;63.49;96575.25;1542246;91;25902;-76
2022/05/30 07:16:00;;;;;;;5.37;2.00;;;;;;;12.26;63.37;96572.02;1542262;93;27398;-76
2022/05/30 07:18:26;;;;;;;2.10;1.80;;;;;;;12.44;63.32;96572.33;1542329;93;25762;-77
2022/05/30 07:20:59;;;;;;;1.95;1.77;;;;;;;12.64;63.12;96569.18;1562054;90;25327;-76
2022/05/30 07:23:26;;;;;;;2.17;1.90;;;;;;;12.77;63.19;96566.69;1507075;93;25886;-76
2022/05/30 07:26:02;;;;;;;2.02;1.65;;;;;;;12.91;62.96;96576.96;1530176;93;25916;-76
2022/05/30 07:28:30;;;;;;;2.10;1.87;;;;;;;13.06;62.68;96574.19;1508146;95;28074;-75
2022/05/30 07:31:04;;;;;;;3.17;1.65;;;;;;;13.20;62.25;96568.75;1508083;95;25921;-76
2022/05/30 07:33:32;;;;;;;2.83;1.85;;;;;;;13.40;62.27;96569.08;1505129;95;25833;-76
2022/05/30 07:35:59;;;;;;;2.50;1.98;;;;;;;13.62;62.00;96567.74;1490575;96;25939;-75
2022/05/30 07:38:26;;;;;;;1.92;1.72;;;;;;;13.75;61.78;96566.56;1508835;94;25847;-76
2022/05/30 07:40:54;;;;;;;2.55;1.82;;;;;;;13.81;61.29;96569.07;1505587;95;28363;-75
2022/05/30 07:43:20;;;;;;;1.82;1.72;;;;;;;13.69;60.75;96564.30;1514594;93;25803;-76
2022/05/30 07:45:47;;;;;;;2.00;1.90;;;;;;;13.60;60.38;96576.13;1527583;93;25480;-77
2022/05/30 07:48:13;;;;;;;1.98;1.75;;;;;;;13.65;60.30;96581.59;1525804;94;25687;-76
2022/05/30 07:50:40;;;;;;;2.90;1.10;;;;;;;13.90;60.29;96584.36;1534252;93;25816;-76
2022/05/30 07:53:08;;;;;;;1.20;1.10;;;;;;;14.28;59.85;96587.53;1537312;93;27437;-76
2022/05/30 07:55:38;;;;;;;1.30;1.20;;;;;;;14.75;59.04;96584.52;1581204;90;26128;-76
2022/05/30 07:58:05;;;;;;;2.95;1.20;;;;;;;15.23;58.45;96577.31;1629834;88;25782;-76
2022/05/30 08:00:35;;;;;;;0.90;0.90;;;;;;;15.61;57.64;96573.52;1622690;88;25811;-76
2022/05/30 08:03:03;;;;;;;3.80;1.57;;;;;;;15.62;56.96;96566.18;1617551;88;25779;-77
2022/05/30 08:05:30;;;;;;;1.80;1.30;;;;;;;15.55;56.67;96569.69;1610155;88;28173;-76
2022/05/30 08:07:56;;;;;;;2.25;1.10;;;;;;;15.64;56.76;96573.54;1610798;87;25735;-76
2022/05/30 08:10:24;;;;;;;2.92;1.15;;;;;;;16.08;56.56;96568.03;1583918;90;25750;-76
2022/05/30 08:12:51;;;;;;;1.65;1.15;;;;;;;16.50;55.89;96569.80;1610100;89;25940;-77
2022/05/30 08:15:17;;;;;;;4.10;1.20;;;;;;;16.78;55.25;96573.44;1583746;90;25780;-78
2022/05/30 08:17:44;;;;;;;1.17;1.10;;;;;;;16.95;54.45;96576.44;1610503;89;28077;-77
2022/05/30 08:20:14;;;;;;;1.65;1.40;;;;;;;17.15;54.28;96574.52;1636576;84;25783;-77
2022/05/30 08:22:41;;;;;;;2.33;1.00;;;;;;;17.10;53.71;96584.08;1704846;84;25817;-77
2022/05/30 08:25:14;;;;;;;1.45;1.30;;;;;;;16.83;52.96;96577.52;1720652;83;26036;-77
2022/05/30 08:27:44;;;;;;;1.87;1.20;;;;;;;16.46;53.09;96586.41;1720741;83;25758;-77
2022/05/30 08:30:16;;;;;;;0.95;0.95;;;;;;;16.71;53.13;96588.39;1688725;84;27569;-77
2022/05/30 08:32:45;;;;;;;1.15;1.05;;;;;;;16.77;52.90;96592.23;1703566;83;25769;-77
2022/05/30 08:35:14;;;;;;;1.30;1.00;;;;;;;16.92;53.01;96592.23;1704940;84;25773;-77
2022/05/30 08:37:42;;;;;;;2.30;1.07;;;;;;;17.27;53.18;96589.24;1703874;83;25913;-78
2022/05/30 08:43:19;;;;;;;2.10;1.12;;;;;;;18.20;52.22;96592.91;1729889;82;28244;-79
2022/05/30 08:45:47;;;;;;;1.20;1.10;;;;;;;18.38;51.58;96598.28;1726406;82;25797;-77
2022/05/30 08:48:19;;;;;;;1.47;1.00;;;;;;;18.56;50.68;96593.56;1730039;82;25790;-78
2022/05/30 08:50:57;;;;;;;1.25;1.02;;;;;;;18.11;49.71;96594.05;1726759;81;26304;-77
2022/05/30 08:53:40;;;;;;;3.90;1.10;;;;;;;17.89;49.37;96602.55;1728105;82;25896;-77
2022/05/30 08:56:23;;;;;;;1.75;1.50;;;;;;;17.60;48.84;96605.05;1726337;82;27489;-77
2022/05/30 08:59:18;;;;;;;1.65;1.40;;;;;;;17.29;49.26;96597.98;1600043;89;25942;-78
2022/05/30 09:01:52;;;;;;;1.35;1.25;;;;;;;17.47;50.22;96600.16;1624296;88;25864;-79
2022/05/30 09:04:30;;;;;;;1.80;1.40;;;;;;;17.94;49.06;96600.37;1627159;88;25744;-78
2022/05/30 09:07:10;;;;;;;3.17;1.42;;;;;;;17.81;49.07;96607.77;1625316;88;25966;-78
2022/05/30 09:09:54;;;;;;;3.42;1.47;;;;;;;17.97;49.37;96604.73;1598628;88;27453;-79
2022/05/30 09:12:46;;;;;;;1.30;1.10;;;;;;;18.03;47.59;96600.06;1602301;88;25783;-78
2022/05/30 09:15:26;;;;;;;1.12;1.00;;;;;;;18.14;48.12;96609.03;1602704;89;25773;-78
2022/05/30 09:18:09;;;;;;;1.30;1.20;;;;;;;18.55;47.54;96606.95;1602433;89;25757;-79
2022/05/30 09:20:40;;;;;;;1.45;1.20;;;;;;;18.54;47.21;96609.41;1581497;89;25763;-78
2022/05/30 09:23:06;;;;;;;2.58;1.10;;;;;;;18.87;47.06;96607.33;1602349;88;27644;-79
2022/05/30 09:26:01;;;;;;;5.17;1.20;;;;;;;18.95;46.79;96617.69;1602376;89;25764;-78
2022/05/30 09:28:34;;;;;;;1.57;1.40;;;;;;;19.01;46.20;96621.19;1658507;86;26056;-78
2022/05/30 09:31:41;;;;;;;1.45;1.35;;;;;;;18.56;46.06;96614.05;1658421;86;25841;-78
2022/05/30 09:34:45;;;;;;;2.58;1.60;;;;;;;18.13;46.01;96621.05;1658525;86;25813;-77
2022/05/30 09:37:35;;;;;;;3.75;1.15;;;;;;;17.87;46.66;96627.16;1658213;86;27393;-77
2022/05/30 09:40:02;;;;;;;1.77;1.42;;;;;;;18.05;46.65;96632.01;1655728;86;25872;-77
2022/05/30 09:42:37;;;;;;;1.47;1.37;;;;;;;18.30;47.14;96632.47;1658381;86;25333;-79
2022/05/30 09:45:26;;;;;;;1.57;1.45;;;;;;;18.66;47.16;96637.27;1658507;86;25834;-77
2022/05/30 09:48:12;;;;;;;2.95;1.40;;;;;;;18.88;45.89;96630.84;1629964;87;25945;-80
2022/05/30 09:50:45;;;;;;;1.95;1.30;;;;;;;18.56;45.90;96635.92;1631543;87;27436;-78
2022/05/30 09:53:13;;;;;;;2.37;1.37;;;;;;;18.29;45.48;96630.84;1631381;87;26553;-77
2022/05/30 09:55:51;;;;;;;2.72;1.20;;;;;;;17.92;45.80;96637.50;1669949;83;26563;-77
2022/05/30 09:58:23;;;;;;;2.50;1.60;;;;;;;17.62;46.08;96638.35;1701848;84;25856;-77
2022/05/30 10:00:58;;;;;;;3.02;2.10;;;;;;;17.45;46.38;96639.72;1706829;83;25812;-80
2022/05/30 10:03:32;;;;;;;2.27;1.52;;;;;;;17.25;46.65;96633.18;1689249;83;27443;-77
2022/05/30 10:06:16;;;;;;;2.80;2.08;;;;;;;17.00;46.90;96629.61;1618718;87;26269;-78
2022/05/30 10:08:43;;;;;;;4.50;1.40;;;;;;;16.99;47.48;96637.52;1574738;91;26045;-76
2022/05/30 10:11:30;;;;;;;2.40;1.67;;;;;;;17.45;47.25;96635.08;1582008;90;25728;-81
2022/05/30 10:13:55;;;;;;;2.45;1.60;;;;;;;17.83;47.42;96632.89;1579199;90;25827;-79
2022/05/30 10:16:33;;;;;;;3.45;1.62;;;;;;;18.23;46.85;96626.50;1582075;90;27464;-77
2022/05/30 10:19:04;;;;;;;4.08;1.60;;;;;;;18.52;46.86;96623.91;1580607;90;26477;-77
2022/05/30 10:28:41;;;;;;;1.65;1.40;;;;;;;19.35;45.31;96628.05;1581957;90;25641;-77
2022/05/30 10:31:31;;;;;;;2.60;1.60;;;;;;;19.11;44.81;96629.32;1580925;90;27421;-77
2022/05/30 10:34:32;;;;;;;2.58;1.40;;;;;;;18.68;45.06;96625.50;1578719;90;25683;-79
2022/05/30 10:37:27;;;;;;;1.85;1.65;;;;;;;18.46;45.63;96629.14;1581898;90;25848;-77
2022/05/30 10:40:27;;;;;;;1.98;1.32;;;;;;;18.26;45.39;96629.47;1581858;90;26541;-77
2022/05/30 10:42:59;;;;;;;5.90;1.95;;;;;;;18.30;45.54;96637.94;1585367;88;25925;-77
2022/05/30 10:45:49;;;;;;;2.22;1.42;;;;;;;18.32;45.37;96629.73;1582475;89;26745;-80
2022/05/30 10:48:24;;;;;;;1.98;1.42;;;;;;;18.63;45.59;96636.45;1538355;92;25522;-78
2022/05/30 10:51:01;;;;;;;2.20;1.60;;;;;;;19.05;45.32;96638.13;1538051;93;26389;-78
2022/05/30 10:53:45;;;;;;;2.58;1.50;;;;;;;19.64;44.99;96634.41;1434687;99;25919;-79
2022/05/30 10:56:19;;;;;;;4.28;1.65;;;;;;;20.14;44.66;96630.90;1432283;99;26146;-78
2022/05/30 10:59:18;;;;;;;1.85;1.65;;;;;;;20.19;43.73;96623.97;1392940;102;28521;-81
2022/05/30 11:01:56;;;;;;;1.47;1.30;;;;;;;20.47;44.37;96627.23;1394706;102;25857;-79
2022/05/30 11:04:43;;;;;;;1.82;1.30;;;;;;;20.76;43.13;96622.22;1378188;104;25927;-76
2022/05/30 11:07:44;;;;;;;3.75;1.52;;;;;;;20.80;42.75;96630.09;1411774;101;25887;-77
2022/05/30 11:10:42;;;;;;;3.05;1.70;;;;;;;20.62;42.48;96624.05;1409844;101;25961;-78
2022/05/30 11:13:44;;;;;;;2.27;1.50;;;;;;;20.29;42.69;96636.19;1416015;100;27525;-77
2022/05/30 11:16:46;;;;;;;4.03;1.27;;;;;;;19.92;42.53;96630.59;1392689;102;25952;-79
2022/05/30 11:19:44;;;;;;;1.87;1.30;;;;;;;19.86;42.96;96637.21;1391295;102;25869;-81
2022/05/30 11:22:18;;;;;;;1.70;1.32;;;;;;;20.06;42.84;96644.66;1392649;102;26403;-78
2022/05/30 11:24:50;;;;;;;2.12;1.47;;;;;;;20.07;42.22;96642.73;1395444;100;25892;-77
2022/05/30 11:27:39;;;;;;;2.15;1.35;;;;;;;20.07;42.03;96655.06;1447260;98;28418;-77
2022/05/30 11:30:47;;;;;;;3.67;1.50;;;;;;;20.12;42.12;96656.39;1454279;98;26047;-81
2022/05/30 11:33:37;;;;;;;4.33;1.60;;;;;;;20.46;42.04;96646.72;1454519;98;25884;-77
2022/05/30 11:36:24;;;;;;;1.52;1.20;;;;;;;20.92;41.33;96631.84;1454465;98;25952;-76
2022/05/30 11:39:30;;;;;;;1.95;1.40;;;;;;;20.92;41.33;96631.84;1455667;98;25469;-77
2022/05/30 11:42:17;;;;;;;2.80;1.70;;;;;;;21.16;40.74;96636.70;1403806;101;27498;-77
2022/05/30 11:44:55;;;;;;;3.27;1.10;;;;;;;;;;1416398;101;25827;-79
2022/05/30 11:47:41;;;;;;;1.72;1.40;;;;;;;21.37;40.16;96628.20;1416369;100;25949;-80
2022/05/30 11:50:36;;;;;;;4.55;1.22;;;;;;;21.58;39.76;96628.12;1430335;99;25850;-76
2022/05/30 11:53:08;;;;;;;3.08;1.30;;;;;;;21.81;39.33;96632.66;1437902;93;25894;-77
2022/05/30 11:56:00;;;;;;;4.87;1.10;;;;;;;21.81;39.33;96632.66;1568424;88;27415;-76
2022/05/30 11:58:51;;;;;;;2.85;1.42;;;;;;;21.89;39.49;96622.34;1624648;87;34885;-77
2022/05/30 12:01:21;;;;;;;1.32;1.20;;;;;;;21.81;38.92;96625.79;1572413;90;25354;-78
2022/05/30 12:04:17;;;;;;;1.50;1.40;;;;;;;21.81;38.92;96625.79;1572594;90;26622;-80
2022/05/30 12:07:07;;;;;;;2.12;1.30;;;;;;;21.71;38.56;96621.86;1569388;90;25837;-77
2022/05/30 12:09:54;;;;;;;2.02;1.47;;;;;;;21.47;38.71;96606.07;1571068;90;28229;-77
2022/05/30 12:12:59;;;;;;;1.80;1.45;;;;;;;21.20;38.49;96635.03;1571152;90;25751;-76
2022/05/30 12:16:08;;;;;;;2.92;1.60;;;;;;;21.20;38.49;96635.03;1572468;90;25926;-77
2022/05/30 12:24:40;;;;;;;1.92;1.45;;;;;;;19.84;39.49;96645.71;1720835;83;28210;-77